Westover, Maryland
Current Conditions -  °F | °C
As of 3:15 AM on Saturday 01 Nov 2014 (Local Time) from KSBY Reporting Station
Overcast Overcast  
Wind Chill: 50°   Ceiling: 1300
Heat Index: 50°   Visibility: 10mi
Dew Point: 44°   Wind: 10mph
Humidity: 80%   Direction: 350°N
Pressure: 29.69"   Gusts: NA
Location:  38.12°N, 75.71°W
Report Text: KSBY 010715Z AUTO 35009KT 10SM BKN013 BKN035 OVC050 10/07 A2969 RMK AO2 RAE0657 P0000 T01000067
Loading
Personal Weather Stations






























Interactive Weather Map New forecast layout! Learn more

10-Day Weather Forecast

Advertisements
Track Severe Weather on mobile